Aviation Digital Data Service (ADDS)

Output produced by METARs form (0907 UTC 23 January 2019)
found at http://aviationweather.gov/metar/data/
 
METAR text: KCVC 230855Z AUTO 07007KT 10SM OVC017 06/M01 A3033 RMK AO2 PNO
Conditions at: KCVC (COVINGTON MUNI , GA, US) observed 0855 UTC 23 January 2019
Temperature: 6.0°C (43°F)
Dewpoint: -1.0°C (30°F) [RH = 61%]
Pressure (altimeter): 30.33 inches Hg (1027.2 mb)
Winds: from the ENE (70 degrees) at 8 MPH (7 knots; 3.6 m/s)
Visibility: 10 or more miles (16+ km)
Ceiling: 1700 feet AGL
Clouds: overcast cloud deck at 1700 feet AGL
Weather: automated observation with no human augmentation;
there may or may not be significant weather present at this time